Skip Navigation LinksHome page > Weather > Current weather Skip Navigation Links

Current Weather

Chicago Midway, Chicago

For information only: do not use for flight planning or navigation.
Latest weather
Observation time Monday, June 21, 2021 7:53 PM CDT
Local time Monday, June 21, 2021 8:07 PM CDT
Flight conditions Visual Meteorological Conditions
Winds
Wind direction North-Northwest (330°)
Wind speed 18 mph
Wind gusting to 29 mph
Visibility 10 mi.
Sky condition
Ceiling 25,000 ft. broken clouds
Cloud layer scattered clouds 6,000 ft.
Cloud layer broken clouds 25,000 ft.
Temperature 67°F
Dewpoint 39°F
Altimeter 29.86 in.Hg
Derived measurements
Relative humidity 36%
Density altitude 1327 ft.
Sea-level pressure 29.84 in.Hg
Remarks
Automated weather observing station with precipitation discriminator.
METAR KMDW 220053Z 33016G25KT 10SM SCT060 BKN250 19/04 A2986 RMK AO2 SLP106 T01940039

Settings

Location code

InnerDrive.Weather 4.0.6770.0 Release CLR 4.0.30319.42000
Copyright ©2018 Inner Drive Technology. All rights reserved. Portions Copyright ©1986-2018 David Braverman.

Find weather

Site navigation


Skip Navigation Links

Place info

Page info

PayPal - The safer, easier way to pay online!

Return home.

Copyright ©2021 Inner Drive Technology. Purveyors of fine, hand-crafted computer software. Page printed 2021-06-22T01:07:09 UTC.